Главная страница
METAR-TAF:

METAR-TAF

Аэропорты :

Сеул-Кимпхо, Республика Корея

широта: 37-33N, долгота: 126-48E, высота над уровнем моря: 18 м

Текущие метеонаблюдения

Эта сводка был подготовлена 39 минут назад, в 18:00 UTC
Ветер 6 Узел от юго-восточный
Температура 18°C
Влажность 94%
Давление 1014 hPa
Видимость 10 км и более
Нет облачности ниже 1500 м, и нет кучево-дождевой облачности

METAR: RKSS 251800Z 13006KT CAVOK 18/17 Q1014 NOSIG

Время: 03:39 (18:39 UTC)

Прогноз

Эта сводка был подготовлена 1 час и 39 минут назад, в 17:00 UTC
Прогноз действительный с 25-го 18 UTC до 26-го 24 UTC
Ветер 5 Узел от юго-юго-восточный
Видимость 10 км и более
Нет облачности ниже 1500 м, и нет кучево-дождевой облачности
изменения
С 26-го 01 UTC до 26-го 03 UTC
Ветер 8 Узел от западный
изменения
С 26-го 14 UTC до 26-го 16 UTC
Ветер 5 Узел от южный-юго-западный

TAF: RKSS 251700Z 2518/2624 15005KT CAVOK TN17/2520Z TX30/2605Z TN18/2620Z BECMG 2601/2603 28008KT BECMG 2614/2616 20005KT

Метеонаблюдения и прогнозы для более 4000 аэропортов (сводки METAR и TAF).

Имеющиеся станции представлены на карте желтыми и красными точками.

Чтобы увидеть название станции, наведите на нее мышь.

Затем щелкните, чтобы увидеть метеонаблюдения и метеопрогнозы.

Управление картой: чтобы увеличить масштаб, щелкните зеленые кнопки с черным крестиком; чтобы уменьшить масштаб, щелкните зеленую кнопку с тире; для просмотра соседних карт щелкайте зеленые стрелки.


METAR-TAF: